createdAt,value
2019-02-23T00:00:01.406Z,78.07
2019-02-23T00:02:30.083Z,77.94
2019-02-23T00:04:58.748Z,77.55
2019-02-23T00:07:27.488Z,75.89
2019-02-23T00:09:57.022Z,74.51
2019-02-23T00:12:25.652Z,73.61
2019-02-23T00:14:54.394Z,72.96
2019-02-23T00:17:23.016Z,72.94
2019-02-23T00:19:51.655Z,71.73
2019-02-23T00:22:20.392Z,70.59
2019-02-23T00:24:49.012Z,69.21
2019-02-23T00:27:17.640Z,71.14
2019-02-23T00:29:46.317Z,69.99
2019-02-23T00:32:14.948Z,69.35
2019-02-23T00:34:43.589Z,69.23
2019-02-23T00:37:12.260Z,69.56
2019-02-23T00:39:40.942Z,66.84
2019-02-23T00:42:09.577Z,68.05
2019-02-23T00:44:38.302Z,68.21
2019-02-23T00:47:06.931Z,69.85
2019-02-23T00:49:36.708Z,69.05
2019-02-23T00:52:05.402Z,68.08
2019-02-23T00:54:34.043Z,70.00
2019-02-23T00:57:02.658Z,67.69
2019-02-23T00:59:31.394Z,65.77
2019-02-23T01:02:00.019Z,63.45
2019-02-23T01:04:28.649Z,67.03
2019-02-23T01:06:57.305Z,67.34
2019-02-23T01:09:25.931Z,67.00
2019-02-23T01:11:55.483Z,65.00
2019-02-23T01:14:24.226Z,65.54
2019-02-23T01:16:52.840Z,65.90
2019-02-23T01:19:21.845Z,65.87
2019-02-23T01:21:50.597Z,64.31
2019-02-23T01:24:19.225Z,63.16
2019-02-23T01:26:47.847Z,64.66
2019-02-23T01:29:16.535Z,64.94
2019-02-23T01:31:45.162Z,63.31
2019-02-23T01:34:13.790Z,61.35
2019-02-23T01:36:42.526Z,61.49
2019-02-23T01:39:11.530Z,60.58
2019-02-23T01:41:40.157Z,60.73
2019-02-23T01:44:08.884Z,61.20
2019-02-23T01:46:37.585Z,61.62
2019-02-23T01:49:06.291Z,61.33
2019-02-23T01:51:35.031Z,61.00
2019-02-23T01:54:03.663Z,59.70
2019-02-23T01:56:32.285Z,61.29
2019-02-23T01:59:01.021Z,63.41
2019-02-23T02:01:29.726Z,63.32
2019-02-23T02:03:58.354Z,62.03
2019-02-23T02:06:27.082Z,60.62
2019-02-23T02:08:55.715Z,63.86
2019-02-23T02:11:25.013Z,64.99
2019-02-23T02:13:54.518Z,65.44
2019-02-23T02:16:23.152Z,66.03
2019-02-23T02:18:51.775Z,63.63
2019-02-23T02:21:20.445Z,62.50
2019-02-23T02:23:49.148Z,62.82
2019-02-23T02:26:17.774Z,61.98
2019-02-23T02:28:46.505Z,62.82
2019-02-23T02:31:15.218Z,62.44
2019-02-23T02:34:05.019Z,63.02
2019-02-23T02:36:33.746Z,60.59
2019-02-23T02:39:04.768Z,62.34
2019-02-23T02:41:33.504Z,62.02
2019-02-23T02:44:02.200Z,62.00
2019-02-23T02:46:30.910Z,62.47
2019-02-23T02:48:59.586Z,63.79
2019-02-23T02:51:28.231Z,64.05
2019-02-23T02:53:56.853Z,63.79
2019-02-23T02:56:25.597Z,63.18
2019-02-23T02:58:54.288Z,65.96
2019-02-23T03:01:22.982Z,66.00
2019-02-23T03:03:51.662Z,65.06
2019-02-23T03:06:20.313Z,64.95
2019-02-23T03:08:49.012Z,66.81
2019-02-23T03:11:17.830Z,67.20
2019-02-23T03:13:46.477Z,66.59
2019-02-23T03:16:15.165Z,66.37
2019-02-23T03:18:43.985Z,65.27
2019-02-23T03:21:12.724Z,63.57
2019-02-23T03:23:41.431Z,64.66
2019-02-23T03:26:10.167Z,64.58
2019-02-23T03:28:38.801Z,65.61
2019-02-23T03:31:07.434Z,64.52
2019-02-23T03:33:36.499Z,64.01
2019-02-23T03:36:05.196Z,64.32
2019-02-23T03:38:33.827Z,63.84
2019-02-23T03:41:02.512Z,63.27
2019-02-23T03:43:31.137Z,62.44
2019-02-23T03:45:59.768Z,62.76
2019-02-23T03:48:28.512Z,64.00
2019-02-23T03:50:57.158Z,62.04
2019-02-23T03:53:25.800Z,61.99
2019-02-23T03:55:54.565Z,61.73
2019-02-23T03:58:23.266Z,64.07
2019-02-23T04:00:51.904Z,64.16
2019-02-23T04:03:20.658Z,63.38
2019-02-23T04:05:49.285Z,62.01
2019-02-23T04:08:17.923Z,61.65
2019-02-23T04:10:46.595Z,60.59
2019-02-23T04:13:15.235Z,61.42
2019-02-23T04:15:43.934Z,61.21
2019-02-23T04:18:12.694Z,61.35
2019-02-23T04:20:41.305Z,61.52
2019-02-23T04:23:10.036Z,60.76
2019-02-23T04:25:38.696Z,59.96
2019-02-23T04:28:07.323Z,59.30
2019-02-23T04:30:35.956Z,61.93
2019-02-23T04:33:04.625Z,63.36
2019-02-23T04:35:33.327Z,63.68
2019-02-23T04:38:01.955Z,64.96
2019-02-23T04:40:30.625Z,63.87
2019-02-23T04:42:59.227Z,62.69
2019-02-23T04:45:27.867Z,63.62
2019-02-23T04:47:56.606Z,64.15
2019-02-23T04:50:25.307Z,65.70
2019-02-23T04:52:54.000Z,65.46
2019-02-23T04:55:22.672Z,66.11
2019-02-23T04:57:51.299Z,66.09
2019-02-23T05:00:19.925Z,68.05
2019-02-23T05:02:48.590Z,67.47
2019-02-23T05:05:17.215Z,67.47
2019-02-23T05:07:46.039Z,67.46
2019-02-23T05:10:14.658Z,67.21
2019-02-23T05:12:43.283Z,66.82
2019-02-23T05:15:11.926Z,66.70
2019-02-23T05:17:40.661Z,66.70
2019-02-23T05:20:10.142Z,67.16
2019-02-23T05:22:38.777Z,68.06
2019-02-23T05:25:07.560Z,68.13
2019-02-23T05:27:36.153Z,68.21
2019-02-23T05:30:06.076Z,66.81
2019-02-23T05:32:34.757Z,67.67
2019-02-23T05:35:03.457Z,66.54
2019-02-23T05:37:32.151Z,66.01
2019-02-23T05:40:00.830Z,66.58
2019-02-23T05:42:29.454Z,66.89
2019-02-23T05:44:58.084Z,66.01
2019-02-23T05:47:26.830Z,65.67
2019-02-23T05:49:55.460Z,66.04
2019-02-23T05:52:24.127Z,62.90
2019-02-23T05:54:52.822Z,61.01
2019-02-23T05:57:21.457Z,61.25
2019-02-23T05:59:50.168Z,59.80
2019-02-23T06:02:18.916Z,59.64
2019-02-23T06:04:47.564Z,58.05
2019-02-23T06:07:16.283Z,58.30
2019-02-23T06:09:44.962Z,58.44
2019-02-23T06:12:13.662Z,56.10
2019-02-23T06:14:42.364Z,58.49
2019-02-23T06:17:11.030Z,58.50
2019-02-23T06:19:39.678Z,59.92
2019-02-23T06:22:09.134Z,59.60
2019-02-23T06:24:37.817Z,59.06
2019-02-23T06:27:06.522Z,59.39
2019-02-23T06:29:35.239Z,58.93
2019-02-23T06:32:03.988Z,59.67
2019-02-23T06:34:32.620Z,59.37
2019-02-23T06:37:01.255Z,59.51
2019-02-23T06:39:30.000Z,60.23
2019-02-23T06:41:58.662Z,60.15
2019-02-23T06:44:27.286Z,61.12
2019-02-23T06:46:55.969Z,60.52
2019-02-23T06:49:24.608Z,59.14
2019-02-23T06:52:03.745Z,58.88
2019-02-23T06:54:23.737Z,59.18
2019-02-23T06:56:52.421Z,57.29
2019-02-23T06:59:21.053Z,56.97
2019-02-23T07:01:49.715Z,57.07
2019-02-23T07:04:18.418Z,56.01
2019-02-23T07:06:47.051Z,56.64
2019-02-23T07:09:15.712Z,55.81
2019-02-23T07:11:44.344Z,56.99
2019-02-23T07:14:12.978Z,55.38
2019-02-23T07:16:41.652Z,54.34
2019-02-23T07:19:10.286Z,53.32
2019-02-23T07:21:38.981Z,54.78
2019-02-23T07:24:08.497Z,54.12
2019-02-23T07:26:37.124Z,54.07
2019-02-23T07:29:05.750Z,54.42
2019-02-23T07:31:34.437Z,53.09
2019-02-23T07:34:03.063Z,55.33
2019-02-23T07:36:31.761Z,54.66
2019-02-23T07:39:00.491Z,55.22
2019-02-23T07:41:29.188Z,53.69
2019-02-23T07:43:57.811Z,54.54
2019-02-23T07:46:26.571Z,54.05
2019-02-23T07:48:55.270Z,52.68
2019-02-23T07:51:23.904Z,51.21
2019-02-23T07:53:52.570Z,51.93
2019-02-23T07:56:21.267Z,53.33
2019-02-23T07:58:49.987Z,51.06
2019-02-23T08:01:18.723Z,52.88
2019-02-23T08:03:47.428Z,52.20
2019-02-23T08:06:16.145Z,51.91
2019-02-23T08:08:45.102Z,50.57
2019-02-23T08:11:13.798Z,49.29
2019-02-23T08:13:42.439Z,49.53
2019-02-23T08:16:11.171Z,49.75
2019-02-23T08:18:39.876Z,49.46
2019-02-23T08:21:08.576Z,49.14
2019-02-23T08:23:37.242Z,50.68
2019-02-23T08:26:05.938Z,51.78
2019-02-23T08:28:34.559Z,52.04
2019-02-23T08:31:03.291Z,51.33
2019-02-23T08:33:31.927Z,50.10
2019-02-23T08:36:00.557Z,49.51
2019-02-23T08:38:29.306Z,50.97
2019-02-23T08:40:58.007Z,50.28
2019-02-23T08:43:26.633Z,48.90
2019-02-23T08:45:55.300Z,49.75
2019-02-23T08:48:23.995Z,49.40
2019-02-23T08:50:52.643Z,49.47
2019-02-23T08:53:21.294Z,51.04
2019-02-23T08:55:49.931Z,48.23
2019-02-23T08:58:18.634Z,48.03
2019-02-23T09:00:47.383Z,47.37
2019-02-23T09:03:16.082Z,48.32
2019-02-23T09:05:44.711Z,49.21
2019-02-23T09:08:13.469Z,47.55
2019-02-23T09:10:42.157Z,46.74
2019-02-23T09:13:10.781Z,47.04
2019-02-23T09:15:39.508Z,45.31
2019-02-23T09:18:08.130Z,49.06
2019-02-23T09:20:36.764Z,47.23
2019-02-23T09:23:05.500Z,49.10
2019-02-23T09:25:34.125Z,47.54
2019-02-23T09:28:02.819Z,48.21
2019-02-23T09:30:31.565Z,46.87
2019-02-23T09:33:00.277Z,46.09
2019-02-23T09:35:28.974Z,45.30
2019-02-23T09:37:57.659Z,43.67
2019-02-23T09:40:26.279Z,44.15
2019-02-23T09:42:54.980Z,44.75
2019-02-23T09:45:23.640Z,46.79
2019-02-23T09:47:52.274Z,45.30
2019-02-23T09:50:20.901Z,46.94
2019-02-23T09:52:49.569Z,45.85
2019-02-23T09:55:18.268Z,45.96
2019-02-23T09:57:46.901Z,46.66
2019-02-23T10:00:15.845Z,45.16
2019-02-23T10:02:44.468Z,43.55
2019-02-23T10:05:13.246Z,43.70
2019-02-23T10:07:41.986Z,46.71
2019-02-23T10:10:11.609Z,45.71
2019-02-23T10:12:40.306Z,46.14
2019-02-23T10:15:10.673Z,46.85
2019-02-23T10:17:39.372Z,48.23
2019-02-23T10:20:10.306Z,45.95
2019-02-23T10:22:39.749Z,46.57
2019-02-23T10:25:08.750Z,47.78
2019-02-23T10:27:38.317Z,47.85
2019-02-23T10:30:10.209Z,47.76
2019-02-23T10:32:38.833Z,46.06
2019-02-23T10:35:09.463Z,48.24
2019-02-23T10:37:38.133Z,49.08
2019-02-23T10:40:11.528Z,48.55
2019-02-23T10:42:40.229Z,48.82
2019-02-23T10:45:13.742Z,48.30
2019-02-23T10:47:42.382Z,46.14
2019-02-23T10:50:12.596Z,48.91
2019-02-23T10:52:41.346Z,47.11
2019-02-23T10:55:14.732Z,48.05
2019-02-23T10:57:43.364Z,47.05
2019-02-23T11:00:16.046Z,46.90
2019-02-23T11:02:44.746Z,48.70
2019-02-23T11:05:13.840Z,49.25
2019-02-23T11:07:42.583Z,48.67
2019-02-23T11:10:11.274Z,48.04
2019-02-23T11:12:39.916Z,48.68
2019-02-23T11:15:11.669Z,46.12
2019-02-23T11:17:40.566Z,45.69
2019-02-23T11:20:10.710Z,46.28
2019-02-23T11:22:39.533Z,44.33
2019-02-23T11:25:12.482Z,44.57
2019-02-23T11:27:41.956Z,45.15
2019-02-23T11:30:12.697Z,45.00
2019-02-23T11:32:41.399Z,46.22
2019-02-23T11:35:12.671Z,44.51
2019-02-23T11:37:41.339Z,45.25
2019-02-23T11:40:11.730Z,46.03
2019-02-23T11:42:40.363Z,45.51
2019-02-23T11:45:10.400Z,47.19
2019-02-23T11:47:39.101Z,46.89
2019-02-23T11:50:12.632Z,45.63
2019-02-23T11:52:41.472Z,46.21
2019-02-23T11:55:10.094Z,45.48
2019-02-23T11:57:38.791Z,44.61
2019-02-23T12:00:10.123Z,44.92
2019-02-23T12:02:38.750Z,43.70
2019-02-23T12:05:09.154Z,42.91
2019-02-23T12:07:37.808Z,44.21
2019-02-23T12:10:09.811Z,44.02
2019-02-23T12:12:38.512Z,44.05
2019-02-23T12:15:08.495Z,51.73
2019-02-23T12:17:37.125Z,44.68
2019-02-23T12:20:07.951Z,46.46
2019-02-23T12:22:36.670Z,45.36
2019-02-23T12:25:06.190Z,44.24
2019-02-23T12:27:34.827Z,44.86
2019-02-23T12:30:05.557Z,43.11
2019-02-23T12:32:34.256Z,43.62
2019-02-23T12:35:02.966Z,45.05
2019-02-23T12:37:31.697Z,45.03
2019-02-23T12:40:00.331Z,43.84
2019-02-23T12:42:28.957Z,45.58
2019-02-23T12:44:57.629Z,48.74
2019-02-23T12:47:26.327Z,46.83
2019-02-23T12:49:55.031Z,43.63
2019-02-23T12:52:23.762Z,43.70
2019-02-23T12:54:52.459Z,42.39
2019-02-23T12:57:21.146Z,42.67
2019-02-23T12:59:49.801Z,46.21
2019-02-23T13:02:18.502Z,44.64
2019-02-23T13:04:47.193Z,45.40
2019-02-23T13:07:15.939Z,43.61
2019-02-23T13:09:45.470Z,44.12
2019-02-23T13:12:26.032Z,45.11
2019-02-23T13:15:12.512Z,46.20
2019-02-23T13:18:11.331Z,48.40
2019-02-23T13:20:57.924Z,46.80
2019-02-23T13:23:41.724Z,47.55
2019-02-23T13:26:34.154Z,46.97
2019-02-23T13:29:14.542Z,46.42
2019-02-23T13:31:51.987Z,48.11
2019-02-23T13:34:29.618Z,48.14
2019-02-23T13:37:13.034Z,48.55
2019-02-23T13:39:53.232Z,46.73
2019-02-23T13:42:30.564Z,45.90
2019-02-23T13:45:24.501Z,48.61
2019-02-23T13:48:15.215Z,48.32
2019-02-23T13:51:06.156Z,48.12
2019-02-23T13:53:46.481Z,47.20
2019-02-23T13:56:36.155Z,45.75
2019-02-23T13:59:19.420Z,47.77
2019-02-23T14:01:56.651Z,47.49
2019-02-23T14:04:40.114Z,45.70
2019-02-23T14:07:35.869Z,47.42
2019-02-23T14:10:13.184Z,47.57
2019-02-23T14:12:50.700Z,47.23
2019-02-23T14:15:43.270Z,47.28
2019-02-23T14:18:29.954Z,45.83
2019-02-23T14:21:34.438Z,46.95
2019-02-23T14:24:09.075Z,47.19
2019-02-23T14:26:40.619Z,47.02
2019-02-23T14:29:30.278Z,45.41
2019-02-23T14:32:05.322Z,45.92
2019-02-23T14:34:36.898Z,46.25
2019-02-23T14:37:26.494Z,45.73
2019-02-23T14:40:00.849Z,44.94
2019-02-23T14:42:41.044Z,45.05
2019-02-23T14:45:21.870Z,45.05
2019-02-23T14:48:11.562Z,46.58
2019-02-23T14:50:59.525Z,46.94
2019-02-23T14:53:42.870Z,47.29
2019-02-23T14:56:33.824Z,46.60
2019-02-23T14:59:08.274Z,46.11
2019-02-23T15:01:39.957Z,48.32
2019-02-23T15:04:30.825Z,48.23
2019-02-23T15:07:14.466Z,47.20
2019-02-23T15:09:46.070Z,47.57
2019-02-23T15:12:38.891Z,46.62
2019-02-23T15:15:13.556Z,46.60
2019-02-23T15:18:03.308Z,47.23
2019-02-23T15:20:50.056Z,47.07
2019-02-23T15:23:39.631Z,47.42
2019-02-23T15:26:38.106Z,48.42
2019-02-23T15:29:09.750Z,46.43
2019-02-23T15:31:43.955Z,46.15
2019-02-23T15:34:21.431Z,47.67
2019-02-23T15:37:00.934Z,48.73
2019-02-23T15:40:02.165Z,48.28
2019-02-23T15:42:51.709Z,49.20
2019-02-23T15:45:28.951Z,49.13
2019-02-23T15:48:15.230Z,50.88
2019-02-23T15:50:43.991Z,49.98
2019-02-23T15:53:12.708Z,49.71
2019-02-23T15:55:43.026Z,48.56
2019-02-23T15:58:11.758Z,48.81
2019-02-23T16:00:40.659Z,48.42
2019-02-23T16:03:09.384Z,48.16
2019-02-23T16:05:38.081Z,57.49
2019-02-23T16:08:06.797Z,48.13
2019-02-23T16:10:35.470Z,49.69
2019-02-23T16:13:04.210Z,49.14
2019-02-23T16:15:33.009Z,50.22
2019-02-23T16:18:01.710Z,49.63
2019-02-23T16:20:30.643Z,50.11
2019-02-23T16:22:59.343Z,49.03
2019-02-23T16:25:37.987Z,48.10
2019-02-23T16:27:58.757Z,49.60
2019-02-23T16:30:27.960Z,48.03
2019-02-23T16:32:56.797Z,48.59
2019-02-23T16:35:25.480Z,47.83
2019-02-23T16:37:54.181Z,49.39
2019-02-23T16:40:22.935Z,48.27
2019-02-23T16:42:51.674Z,48.81
2019-02-23T16:45:20.379Z,48.49
2019-02-23T16:47:49.074Z,47.96
2019-02-23T16:50:17.817Z,47.72
2019-02-23T16:52:46.510Z,47.25
2019-02-23T16:55:15.208Z,48.09
2019-02-23T16:57:43.953Z,48.21
2019-02-23T17:00:12.656Z,47.34
2019-02-23T17:02:41.365Z,47.16
2019-02-23T17:05:10.104Z,46.72
2019-02-23T17:07:38.804Z,47.70
2019-02-23T17:10:08.004Z,47.30
2019-02-23T17:12:36.839Z,47.61
2019-02-23T17:15:06.922Z,46.93
2019-02-23T17:17:35.620Z,49.47
2019-02-23T17:20:04.658Z,47.55
2019-02-23T17:22:33.363Z,46.83
2019-02-23T17:25:02.069Z,47.66
2019-02-23T17:27:36.169Z,46.55
2019-02-23T17:30:01.257Z,47.12
2019-02-23T17:32:29.958Z,49.12
2019-02-23T17:34:59.562Z,47.90
2019-02-23T17:37:28.265Z,46.59
2019-02-23T17:39:56.976Z,45.73
2019-02-23T17:42:28.500Z,45.44
2019-02-23T17:44:56.131Z,46.39
2019-02-23T17:47:24.829Z,46.64
2019-02-23T17:49:53.639Z,46.63
2019-02-23T17:52:22.331Z,47.63
2019-02-23T17:54:51.018Z,48.04
2019-02-23T17:57:19.767Z,47.65
2019-02-23T17:59:48.460Z,45.90
2019-02-23T18:02:17.167Z,46.44
2019-02-23T18:04:45.918Z,47.23
2019-02-23T18:07:14.608Z,46.25
2019-02-23T18:09:43.295Z,45.37
2019-02-23T18:12:12.038Z,46.45
2019-02-23T18:14:40.745Z,46.72
2019-02-23T18:17:09.451Z,47.34
2019-02-23T18:19:38.185Z,45.70
2019-02-23T18:22:06.883Z,46.76
2019-02-23T18:24:38.310Z,46.72
2019-02-23T18:27:08.492Z,48.18
2019-02-23T18:29:37.235Z,48.24
2019-02-23T18:32:07.512Z,46.69
2019-02-23T18:34:36.252Z,47.89
2019-02-23T18:37:04.939Z,47.97
2019-02-23T18:39:33.646Z,45.91
2019-02-23T18:42:02.378Z,47.23
2019-02-23T18:44:31.076Z,46.60
2019-02-23T18:46:59.782Z,46.79
2019-02-23T18:49:28.535Z,47.06
2019-02-23T18:51:57.239Z,46.72
2019-02-23T18:54:25.933Z,49.63
2019-02-23T18:56:54.654Z,48.36
2019-02-23T18:59:23.351Z,47.10
2019-02-23T19:01:52.038Z,46.78
2019-02-23T19:04:20.794Z,46.31
2019-02-23T19:06:49.502Z,45.91
2019-02-23T19:09:18.206Z,46.70
2019-02-23T19:11:46.943Z,47.08
2019-02-23T19:14:18.368Z,46.41
2019-02-23T19:16:47.078Z,47.55
2019-02-23T19:19:15.809Z,48.26
2019-02-23T19:21:44.511Z,46.93
2019-02-23T19:24:13.215Z,48.63
2019-02-23T19:26:41.946Z,49.45
2019-02-23T19:29:10.656Z,47.33
2019-02-23T19:31:39.350Z,48.07
2019-02-23T19:34:08.104Z,47.23
2019-02-23T19:36:37.831Z,47.50
2019-02-23T19:39:07.230Z,48.11
2019-02-23T19:41:35.959Z,47.92
2019-02-23T19:44:05.059Z,48.45
2019-02-23T19:46:36.033Z,47.75
2019-02-23T19:49:04.777Z,49.65
2019-02-23T19:51:33.475Z,50.00
2019-02-23T19:54:02.170Z,48.77
2019-02-23T19:56:30.904Z,49.18
2019-02-23T19:59:01.042Z,49.91
2019-02-23T20:01:29.748Z,49.94
2019-02-23T20:03:58.488Z,51.50
2019-02-23T20:06:27.188Z,50.36
2019-02-23T20:08:55.901Z,50.45
2019-02-23T20:11:24.659Z,50.80
2019-02-23T20:13:54.930Z,52.18
2019-02-23T20:16:23.621Z,50.35
2019-02-23T20:18:52.355Z,49.66
2019-02-23T20:21:21.059Z,48.30
2019-02-23T20:23:49.758Z,50.02
2019-02-23T20:26:18.483Z,49.72
2019-02-23T20:28:47.185Z,49.85
2019-02-23T20:31:17.368Z,50.36
2019-02-23T20:33:46.109Z,50.17
2019-02-23T20:36:14.813Z,49.58
2019-02-23T20:38:43.507Z,50.64
2019-02-23T20:41:12.241Z,49.54
2019-02-23T20:43:42.387Z,48.23
2019-02-23T20:46:11.164Z,49.05
2019-02-23T20:48:39.890Z,50.28
2019-02-23T20:51:08.586Z,51.44
2019-02-23T20:53:37.294Z,50.20
2019-02-23T20:56:06.043Z,49.19
2019-02-23T20:58:36.316Z,50.57
2019-02-23T21:01:05.106Z,48.65
2019-02-23T21:03:33.844Z,48.71
2019-02-23T21:06:02.547Z,49.58
2019-02-23T21:08:31.314Z,48.40
2019-02-23T21:11:00.059Z,50.01
2019-02-23T21:13:28.746Z,50.57
2019-02-23T21:15:57.439Z,48.90
2019-02-23T21:18:26.168Z,50.02
2019-02-23T21:20:54.863Z,49.37
2019-02-23T21:23:25.132Z,49.89
2019-02-23T21:25:53.886Z,49.96
2019-02-23T21:28:22.591Z,48.65
2019-02-23T21:30:51.292Z,48.72
2019-02-23T21:33:20.023Z,49.03
2019-02-23T21:35:48.717Z,49.06
2019-02-23T21:38:17.415Z,50.46
2019-02-23T21:40:47.044Z,49.61
2019-02-23T21:43:15.739Z,49.04
2019-02-23T21:45:44.435Z,50.51
2019-02-23T21:48:13.168Z,49.37
2019-02-23T21:50:41.856Z,49.89
2019-02-23T21:53:10.558Z,50.63
2019-02-23T21:55:39.311Z,50.28
2019-02-23T21:58:07.919Z,51.80
2019-02-23T22:00:36.613Z,50.91
2019-02-23T22:03:07.066Z,49.35
2019-02-23T22:05:35.825Z,48.93
2019-02-23T22:08:04.577Z,49.74
2019-02-23T22:10:33.228Z,49.48
2019-02-23T22:13:01.920Z,48.75
2019-02-23T22:15:30.615Z,49.57
2019-02-23T22:17:59.349Z,51.33
2019-02-23T22:20:28.054Z,48.98
2019-02-23T22:22:56.760Z,48.65
2019-02-23T22:25:25.484Z,50.29
2019-02-23T22:27:54.114Z,49.58
2019-02-23T22:30:22.820Z,50.57
2019-02-23T22:32:51.481Z,51.51
2019-02-23T22:35:20.098Z,49.29
2019-02-23T22:37:48.723Z,50.94
2019-02-23T22:40:17.459Z,50.95
2019-02-23T22:42:46.093Z,49.52
2019-02-23T22:45:14.726Z,50.75
2019-02-23T22:47:43.404Z,49.72
2019-02-23T22:50:13.134Z,50.57
2019-02-23T22:52:41.755Z,49.79
2019-02-23T22:55:10.410Z,49.44
2019-02-23T22:57:40.816Z,49.33
2019-02-23T23:00:15.503Z,48.50
2019-02-23T23:02:44.198Z,48.59
2019-02-23T23:05:12.925Z,48.56
2019-02-23T23:07:41.591Z,48.52
2019-02-23T23:10:10.384Z,48.74
2019-02-23T23:12:39.010Z,48.65
2019-02-23T23:15:08.471Z,50.81
2019-02-23T23:17:37.103Z,47.49
2019-02-23T23:20:07.838Z,49.69
2019-02-23T23:22:36.491Z,48.04
2019-02-23T23:25:06.793Z,47.92
2019-02-23T23:27:35.412Z,47.88
2019-02-23T23:30:05.292Z,47.75
2019-02-23T23:32:33.907Z,49.21
2019-02-23T23:35:02.532Z,48.51
2019-02-23T23:37:31.191Z,49.16
2019-02-23T23:39:59.814Z,48.51
2019-02-23T23:42:28.441Z,48.73
2019-02-23T23:44:57.101Z,49.00
2019-02-23T23:47:25.727Z,48.12
2019-02-23T23:49:54.348Z,49.36
2019-02-23T23:52:23.005Z,46.96
2019-02-23T23:54:51.639Z,47.83
2019-02-23T23:57:20.268Z,49.66
2019-02-23T23:59:48.934Z,48.21
